sensor_id;sensor_type;location;lat;lon;timestamp;P1;durP1;ratioP1;P2;durP2;ratioP2
38513;SDS011;24282;48.400;10.808;2022-07-18T00:00:32;2.75;;;1.58;;
38513;SDS011;24282;48.400;10.808;2022-07-18T00:02:58;2.10;;;1.30;;
38513;SDS011;24282;48.400;10.808;2022-07-18T00:05:24;1.98;;;1.50;;
38513;SDS011;24282;48.400;10.808;2022-07-18T00:07:49;2.95;;;1.50;;
38513;SDS011;24282;48.400;10.808;2022-07-18T00:10:15;4.78;;;1.45;;
38513;SDS011;24282;48.400;10.808;2022-07-18T00:12:41;1.83;;;1.20;;
38513;SDS011;24282;48.400;10.808;2022-07-18T00:15:07;2.10;;;1.42;;
38513;SDS011;24282;48.400;10.808;2022-07-18T00:17:35;1.60;;;1.30;;
38513;SDS011;24282;48.400;10.808;2022-07-18T00:20:02;3.95;;;1.55;;
38513;SDS011;24282;48.400;10.808;2022-07-18T00:22:29;3.92;;;1.45;;
38513;SDS011;24282;48.400;10.808;2022-07-18T00:24:55;2.80;;;1.35;;
38513;SDS011;24282;48.400;10.808;2022-07-18T00:27:21;2.65;;;1.73;;
38513;SDS011;24282;48.400;10.808;2022-07-18T00:29:46;3.55;;;1.60;;
38513;SDS011;24282;48.400;10.808;2022-07-18T00:32:12;3.47;;;1.70;;
38513;SDS011;24282;48.400;10.808;2022-07-18T00:34:38;3.95;;;1.70;;
38513;SDS011;24282;48.400;10.808;2022-07-18T00:37:04;2.55;;;1.42;;
38513;SDS011;24282;48.400;10.808;2022-07-18T00:39:30;2.15;;;1.40;;
38513;SDS011;24282;48.400;10.808;2022-07-18T00:41:56;3.67;;;1.75;;
38513;SDS011;24282;48.400;10.808;2022-07-18T00:44:23;4.40;;;2.00;;
38513;SDS011;24282;48.400;10.808;2022-07-18T00:46:53;3.50;;;1.40;;
38513;SDS011;24282;48.400;10.808;2022-07-18T00:49:21;1.70;;;1.50;;
38513;SDS011;24282;48.400;10.808;2022-07-18T00:51:48;1.73;;;1.33;;
38513;SDS011;24282;48.400;10.808;2022-07-18T00:54:14;2.63;;;1.77;;
38513;SDS011;24282;48.400;10.808;2022-07-18T00:56:40;2.85;;;1.60;;
38513;SDS011;24282;48.400;10.808;2022-07-18T00:59:07;2.88;;;1.40;;
38513;SDS011;24282;48.400;10.808;2022-07-18T01:01:33;2.83;;;1.70;;
38513;SDS011;24282;48.400;10.808;2022-07-18T01:04:12;3.10;;;1.85;;
38513;SDS011;24282;48.400;10.808;2022-07-18T01:06:38;2.40;;;1.60;;
38513;SDS011;24282;48.400;10.808;2022-07-18T01:09:04;3.22;;;1.80;;
38513;SDS011;24282;48.400;10.808;2022-07-18T01:11:31;2.00;;;1.33;;
38513;SDS011;24282;48.400;10.808;2022-07-18T01:13:57;2.40;;;1.60;;
38513;SDS011;24282;48.400;10.808;2022-07-18T01:16:24;2.17;;;1.60;;
38513;SDS011;24282;48.400;10.808;2022-07-18T01:18:50;2.20;;;1.60;;
38513;SDS011;24282;48.400;10.808;2022-07-18T01:21:16;3.55;;;1.45;;
38513;SDS011;24282;48.400;10.808;2022-07-18T01:23:43;2.67;;;1.50;;
38513;SDS011;24282;48.400;10.808;2022-07-18T01:26:09;2.10;;;1.25;;
38513;SDS011;24282;48.400;10.808;2022-07-18T01:28:37;1.90;;;1.30;;
38513;SDS011;24282;48.400;10.808;2022-07-18T01:31:03;4.75;;;1.90;;
38513;SDS011;24282;48.400;10.808;2022-07-18T01:33:30;2.50;;;2.05;;
38513;SDS011;24282;48.400;10.808;2022-07-18T01:35:58;2.10;;;1.40;;
38513;SDS011;24282;48.400;10.808;2022-07-18T01:38:27;3.00;;;1.80;;
38513;SDS011;24282;48.400;10.808;2022-07-18T01:40:53;4.88;;;1.40;;
38513;SDS011;24282;48.400;10.808;2022-07-18T01:43:20;2.58;;;1.65;;
38513;SDS011;24282;48.400;10.808;2022-07-18T01:45:47;6.82;;;2.10;;
38513;SDS011;24282;48.400;10.808;2022-07-18T01:48:13;2.83;;;1.40;;
38513;SDS011;24282;48.400;10.808;2022-07-18T01:50:38;2.70;;;1.90;;
38513;SDS011;24282;48.400;10.808;2022-07-18T01:53:04;3.13;;;1.38;;
38513;SDS011;24282;48.400;10.808;2022-07-18T01:55:30;4.88;;;1.70;;
38513;SDS011;24282;48.400;10.808;2022-07-18T01:57:56;4.75;;;1.65;;
38513;SDS011;24282;48.400;10.808;2022-07-18T02:00:22;2.10;;;1.30;;
38513;SDS011;24282;48.400;10.808;2022-07-18T02:02:47;2.33;;;1.55;;
38513;SDS011;24282;48.400;10.808;2022-07-18T02:05:13;3.47;;;1.60;;
38513;SDS011;24282;48.400;10.808;2022-07-18T02:07:40;2.37;;;1.70;;
38513;SDS011;24282;48.400;10.808;2022-07-18T02:10:09;1.70;;;1.10;;
38513;SDS011;24282;48.400;10.808;2022-07-18T02:12:36;2.17;;;1.57;;
38513;SDS011;24282;48.400;10.808;2022-07-18T02:15:03;2.40;;;1.63;;
38513;SDS011;24282;48.400;10.808;2022-07-18T02:17:30;3.40;;;1.85;;
38513;SDS011;24282;48.400;10.808;2022-07-18T02:19:56;1.98;;;1.48;;
38513;SDS011;24282;48.400;10.808;2022-07-18T02:22:21;2.50;;;1.60;;
38513;SDS011;24282;48.400;10.808;2022-07-18T02:24:49;1.97;;;1.53;;
38513;SDS011;24282;48.400;10.808;2022-07-18T02:27:15;3.77;;;1.90;;
38513;SDS011;24282;48.400;10.808;2022-07-18T02:29:41;3.10;;;1.70;;
38513;SDS011;24282;48.400;10.808;2022-07-18T02:32:08;1.70;;;1.40;;
38513;SDS011;24282;48.400;10.808;2022-07-18T02:34:34;1.53;;;1.40;;
38513;SDS011;24282;48.400;10.808;2022-07-18T02:37:00;2.47;;;1.60;;
38513;SDS011;24282;48.400;10.808;2022-07-18T02:39:26;3.37;;;1.70;;
38513;SDS011;24282;48.400;10.808;2022-07-18T02:41:52;4.00;;;1.50;;
38513;SDS011;24282;48.400;10.808;2022-07-18T02:44:18;2.77;;;1.57;;
38513;SDS011;24282;48.400;10.808;2022-07-18T02:46:43;3.03;;;1.87;;
38513;SDS011;24282;48.400;10.808;2022-07-18T02:49:10;2.20;;;1.70;;
38513;SDS011;24282;48.400;10.808;2022-07-18T02:51:52;2.67;;;1.27;;
38513;SDS011;24282;48.400;10.808;2022-07-18T02:54:22;2.10;;;1.60;;
38513;SDS011;24282;48.400;10.808;2022-07-18T02:56:50;4.03;;;1.80;;
38513;SDS011;24282;48.400;10.808;2022-07-18T02:59:16;6.70;;;1.60;;
38513;SDS011;24282;48.400;10.808;2022-07-18T03:01:41;3.20;;;1.90;;
38513;SDS011;24282;48.400;10.808;2022-07-18T03:04:07;3.77;;;1.77;;
38513;SDS011;24282;48.400;10.808;2022-07-18T03:06:33;3.07;;;1.90;;
38513;SDS011;24282;48.400;10.808;2022-07-18T03:08:59;3.17;;;1.80;;
38513;SDS011;24282;48.400;10.808;2022-07-18T03:11:24;2.73;;;1.90;;
38513;SDS011;24282;48.400;10.808;2022-07-18T03:13:50;2.30;;;1.67;;
38513;SDS011;24282;48.400;10.808;2022-07-18T03:16:16;3.20;;;1.70;;
38513;SDS011;24282;48.400;10.808;2022-07-18T03:18:42;2.87;;;2.00;;
38513;SDS011;24282;48.400;10.808;2022-07-18T03:21:07;2.70;;;1.80;;
38513;SDS011;24282;48.400;10.808;2022-07-18T03:23:33;2.57;;;1.80;;
38513;SDS011;24282;48.400;10.808;2022-07-18T03:25:59;3.37;;;1.50;;
38513;SDS011;24282;48.400;10.808;2022-07-18T03:28:25;2.63;;;1.73;;
38513;SDS011;24282;48.400;10.808;2022-07-18T03:30:50;2.40;;;1.80;;
38513;SDS011;24282;48.400;10.808;2022-07-18T03:33:17;2.63;;;1.90;;
38513;SDS011;24282;48.400;10.808;2022-07-18T03:35:43;3.27;;;1.70;;
38513;SDS011;24282;48.400;10.808;2022-07-18T03:38:08;3.17;;;1.87;;
38513;SDS011;24282;48.400;10.808;2022-07-18T03:40:34;2.40;;;1.70;;
38513;SDS011;24282;48.400;10.808;2022-07-18T03:43:00;3.60;;;1.60;;
38513;SDS011;24282;48.400;10.808;2022-07-18T03:45:26;3.87;;;2.03;;
38513;SDS011;24282;48.400;10.808;2022-07-18T03:47:52;2.50;;;1.90;;
38513;SDS011;24282;48.400;10.808;2022-07-18T03:50:17;2.17;;;1.70;;
38513;SDS011;24282;48.400;10.808;2022-07-18T03:52:43;4.83;;;2.17;;
38513;SDS011;24282;48.400;10.808;2022-07-18T03:55:09;5.60;;;1.83;;
38513;SDS011;24282;48.400;10.808;2022-07-18T03:57:35;5.17;;;2.10;;
38513;SDS011;24282;48.400;10.808;2022-07-18T04:00:01;3.77;;;2.27;;
38513;SDS011;24282;48.400;10.808;2022-07-18T04:02:38;3.70;;;1.90;;
38513;SDS011;24282;48.400;10.808;2022-07-18T04:05:04;4.90;;;1.97;;
38513;SDS011;24282;48.400;10.808;2022-07-18T04:07:31;2.97;;;2.20;;
38513;SDS011;24282;48.400;10.808;2022-07-18T04:09:56;3.30;;;1.80;;
38513;SDS011;24282;48.400;10.808;2022-07-18T04:12:22;2.20;;;1.60;;
38513;SDS011;24282;48.400;10.808;2022-07-18T04:14:48;2.90;;;1.90;;
38513;SDS011;24282;48.400;10.808;2022-07-18T04:17:14;4.03;;;2.13;;
38513;SDS011;24282;48.400;10.808;2022-07-18T04:19:39;5.67;;;2.10;;
38513;SDS011;24282;48.400;10.808;2022-07-18T04:22:05;3.40;;;2.00;;
38513;SDS011;24282;48.400;10.808;2022-07-18T04:24:31;2.43;;;1.70;;
38513;SDS011;24282;48.400;10.808;2022-07-18T04:26:56;3.60;;;2.00;;
38513;SDS011;24282;48.400;10.808;2022-07-18T04:29:22;2.90;;;1.90;;
38513;SDS011;24282;48.400;10.808;2022-07-18T04:31:48;2.50;;;2.10;;
38513;SDS011;24282;48.400;10.808;2022-07-18T04:34:14;3.13;;;2.00;;
38513;SDS011;24282;48.400;10.808;2022-07-18T04:36:39;4.70;;;2.10;;
38513;SDS011;24282;48.400;10.808;2022-07-18T04:39:05;3.00;;;1.90;;
38513;SDS011;24282;48.400;10.808;2022-07-18T04:41:31;3.50;;;2.07;;
38513;SDS011;24282;48.400;10.808;2022-07-18T04:43:57;2.80;;;1.93;;
38513;SDS011;24282;48.400;10.808;2022-07-18T04:46:22;3.93;;;2.10;;
38513;SDS011;24282;48.400;10.808;2022-07-18T04:48:48;4.03;;;2.10;;
38513;SDS011;24282;48.400;10.808;2022-07-18T04:51:14;3.43;;;2.13;;
38513;SDS011;24282;48.400;10.808;2022-07-18T04:53:40;4.40;;;2.10;;
38513;SDS011;24282;48.400;10.808;2022-07-18T04:56:05;2.63;;;1.97;;
38513;SDS011;24282;48.400;10.808;2022-07-18T04:58:31;4.87;;;2.40;;
38513;SDS011;24282;48.400;10.808;2022-07-18T05:00:57;3.63;;;2.30;;
38513;SDS011;24282;48.400;10.808;2022-07-18T05:03:23;7.67;;;2.20;;
38513;SDS011;24282;48.400;10.808;2022-07-18T05:05:49;2.87;;;2.10;;
38513;SDS011;24282;48.400;10.808;2022-07-18T05:08:15;3.57;;;2.20;;
38513;SDS011;24282;48.400;10.808;2022-07-18T05:10:41;4.70;;;2.87;;
38513;SDS011;24282;48.400;10.808;2022-07-18T05:13:06;2.83;;;2.13;;
38513;SDS011;24282;48.400;10.808;2022-07-18T05:15:32;3.60;;;2.50;;
38513;SDS011;24282;48.400;10.808;2022-07-18T05:17:58;5.13;;;2.77;;
38513;SDS011;24282;48.400;10.808;2022-07-18T05:20:24;3.23;;;2.47;;
38513;SDS011;24282;48.400;10.808;2022-07-18T05:22:52;3.83;;;2.37;;
38513;SDS011;24282;48.400;10.808;2022-07-18T05:25:19;3.53;;;2.80;;
38513;SDS011;24282;48.400;10.808;2022-07-18T05:27:46;3.07;;;2.40;;
38513;SDS011;24282;48.400;10.808;2022-07-18T05:30:13;4.50;;;2.77;;
38513;SDS011;24282;48.400;10.808;2022-07-18T05:32:40;6.90;;;2.30;;
38513;SDS011;24282;48.400;10.808;2022-07-18T05:35:07;7.67;;;2.67;;
38513;SDS011;24282;48.400;10.808;2022-07-18T05:37:34;3.33;;;2.20;;
38513;SDS011;24282;48.400;10.808;2022-07-18T05:40:04;5.30;;;2.57;;
38513;SDS011;24282;48.400;10.808;2022-07-18T05:42:31;6.13;;;4.97;;
38513;SDS011;24282;48.400;10.808;2022-07-18T05:44:57;12.70;;;8.50;;
38513;SDS011;24282;48.400;10.808;2022-07-18T05:47:23;14.23;;;8.37;;
38513;SDS011;24282;48.400;10.808;2022-07-18T05:49:48;7.25;;;5.22;;
38513;SDS011;24282;48.400;10.808;2022-07-18T05:52:14;5.57;;;3.78;;
38513;SDS011;24282;48.400;10.808;2022-07-18T05:54:40;3.42;;;2.72;;
38513;SDS011;24282;48.400;10.808;2022-07-18T05:57:06;5.30;;;2.28;;
38513;SDS011;24282;48.400;10.808;2022-07-18T05:59:31;3.30;;;2.13;;
38513;SDS011;24282;48.400;10.808;2022-07-18T06:01:57;4.03;;;2.50;;
38513;SDS011;24282;48.400;10.808;2022-07-18T06:04:23;3.10;;;2.30;;
38513;SDS011;24282;48.400;10.808;2022-07-18T06:06:49;5.03;;;2.97;;
38513;SDS011;24282;48.400;10.808;2022-07-18T06:09:17;3.78;;;2.65;;
38513;SDS011;24282;48.400;10.808;2022-07-18T06:11:43;5.30;;;2.60;;
38513;SDS011;24282;48.400;10.808;2022-07-18T06:14:09;3.40;;;2.70;;
38513;SDS011;24282;48.400;10.808;2022-07-18T06:16:35;2.80;;;2.10;;
38513;SDS011;24282;48.400;10.808;2022-07-18T06:19:01;4.78;;;2.50;;
38513;SDS011;24282;48.400;10.808;2022-07-18T06:21:28;3.60;;;2.42;;
38513;SDS011;24282;48.400;10.808;2022-07-18T06:23:54;3.20;;;2.30;;
38513;SDS011;24282;48.400;10.808;2022-07-18T06:26:20;4.45;;;2.33;;
38513;SDS011;24282;48.400;10.808;2022-07-18T06:28:46;3.58;;;2.25;;
38513;SDS011;24282;48.400;10.808;2022-07-18T06:31:12;3.17;;;2.17;;
38513;SDS011;24282;48.400;10.808;2022-07-18T06:33:41;3.08;;;2.30;;
38513;SDS011;24282;48.400;10.808;2022-07-18T06:36:07;2.97;;;2.10;;
38513;SDS011;24282;48.400;10.808;2022-07-18T06:38:36;2.97;;;2.28;;
38513;SDS011;24282;48.400;10.808;2022-07-18T06:41:03;4.00;;;2.50;;
38513;SDS011;24282;48.400;10.808;2022-07-18T06:43:29;3.10;;;2.10;;
38513;SDS011;24282;48.400;10.808;2022-07-18T06:45:55;4.38;;;2.08;;
38513;SDS011;24282;48.400;10.808;2022-07-18T06:48:22;3.85;;;2.17;;
38513;SDS011;24282;48.400;10.808;2022-07-18T06:50:49;4.18;;;2.75;;
38513;SDS011;24282;48.400;10.808;2022-07-18T06:53:14;4.43;;;2.50;;
38513;SDS011;24282;48.400;10.808;2022-07-18T06:55:40;4.30;;;2.58;;
38513;SDS011;24282;48.400;10.808;2022-07-18T06:58:06;3.30;;;2.38;;
38513;SDS011;24282;48.400;10.808;2022-07-18T07:00:32;3.20;;;2.13;;
38513;SDS011;24282;48.400;10.808;2022-07-18T07:02:58;5.47;;;2.30;;
38513;SDS011;24282;48.400;10.808;2022-07-18T07:05:23;3.90;;;2.10;;
38513;SDS011;24282;48.400;10.808;2022-07-18T07:07:49;3.95;;;2.50;;
38513;SDS011;24282;48.400;10.808;2022-07-18T07:10:16;6.25;;;2.90;;
38513;SDS011;24282;48.400;10.808;2022-07-18T07:12:47;5.40;;;2.92;;
38513;SDS011;24282;48.400;10.808;2022-07-18T07:15:14;6.45;;;3.30;;
38513;SDS011;24282;48.400;10.808;2022-07-18T07:17:42;6.20;;;3.65;;
38513;SDS011;24282;48.400;10.808;2022-07-18T07:20:08;5.85;;;2.92;;
38513;SDS011;24282;48.400;10.808;2022-07-18T07:22:45;4.70;;;2.33;;
38513;SDS011;24282;48.400;10.808;2022-07-18T07:25:22;13.55;;;2.90;;
38513;SDS011;24282;48.400;10.808;2022-07-18T07:27:49;3.55;;;2.15;;
38513;SDS011;24282;48.400;10.808;2022-07-18T07:30:15;8.18;;;2.63;;
38513;SDS011;24282;48.400;10.808;2022-07-18T07:32:42;7.05;;;2.80;;
38513;SDS011;24282;48.400;10.808;2022-07-18T07:35:10;7.18;;;2.70;;
38513;SDS011;24282;48.400;10.808;2022-07-18T07:37:39;6.32;;;2.60;;
38513;SDS011;24282;48.400;10.808;2022-07-18T07:40:06;6.10;;;2.47;;
38513;SDS011;24282;48.400;10.808;2022-07-18T07:42:32;4.72;;;2.47;;
38513;SDS011;24282;48.400;10.808;2022-07-18T07:44:58;5.22;;;2.10;;
38513;SDS011;24282;48.400;10.808;2022-07-18T07:47:24;6.63;;;2.47;;
38513;SDS011;24282;48.400;10.808;2022-07-18T07:49:50;5.13;;;2.80;;
38513;SDS011;24282;48.400;10.808;2022-07-18T07:52:16;3.88;;;1.70;;
38513;SDS011;24282;48.400;10.808;2022-07-18T07:54:43;6.45;;;2.58;;
38513;SDS011;24282;48.400;10.808;2022-07-18T07:57:10;5.90;;;2.47;;
38513;SDS011;24282;48.400;10.808;2022-07-18T07:59:36;5.38;;;1.80;;
38513;SDS011;24282;48.400;10.808;2022-07-18T08:02:02;3.50;;;1.75;;
38513;SDS011;24282;48.400;10.808;2022-07-18T08:04:28;3.70;;;2.00;;
38513;SDS011;24282;48.400;10.808;2022-07-18T08:06:54;4.30;;;1.83;;
38513;SDS011;24282;48.400;10.808;2022-07-18T08:09:20;6.75;;;1.95;;
38513;SDS011;24282;48.400;10.808;2022-07-18T08:11:45;4.60;;;2.55;;
38513;SDS011;24282;48.400;10.808;2022-07-18T08:14:11;4.88;;;2.03;;
38513;SDS011;24282;48.400;10.808;2022-07-18T08:16:37;5.32;;;1.90;;
38513;SDS011;24282;48.400;10.808;2022-07-18T08:19:03;4.78;;;2.45;;
38513;SDS011;24282;48.400;10.808;2022-07-18T08:21:29;3.58;;;1.83;;
38513;SDS011;24282;48.400;10.808;2022-07-18T08:23:54;4.90;;;1.73;;
38513;SDS011;24282;48.400;10.808;2022-07-18T08:26:20;4.00;;;2.20;;
38513;SDS011;24282;48.400;10.808;2022-07-18T08:28:46;3.13;;;1.85;;
38513;SDS011;24282;48.400;10.808;2022-07-18T08:31:12;4.75;;;3.20;;
38513;SDS011;24282;48.400;10.808;2022-07-18T08:33:39;5.28;;;3.50;;
38513;SDS011;24282;48.400;10.808;2022-07-18T08:36:05;4.68;;;2.47;;
38513;SDS011;24282;48.400;10.808;2022-07-18T08:38:32;3.63;;;1.50;;
38513;SDS011;24282;48.400;10.808;2022-07-18T08:40:58;3.40;;;1.90;;
38513;SDS011;24282;48.400;10.808;2022-07-18T08:43:25;2.42;;;1.60;;
38513;SDS011;24282;48.400;10.808;2022-07-18T08:45:55;2.90;;;1.40;;
38513;SDS011;24282;48.400;10.808;2022-07-18T08:48:25;2.30;;;1.58;;
38513;SDS011;24282;48.400;10.808;2022-07-18T08:50:51;2.78;;;1.38;;
38513;SDS011;24282;48.400;10.808;2022-07-18T08:53:17;2.70;;;1.48;;
38513;SDS011;24282;48.400;10.808;2022-07-18T08:55:44;2.00;;;1.00;;
38513;SDS011;24282;48.400;10.808;2022-07-18T08:58:10;2.22;;;1.20;;
38513;SDS011;24282;48.400;10.808;2022-07-18T09:00:37;3.10;;;1.63;;
38513;SDS011;24282;48.400;10.808;2022-07-18T09:03:03;2.88;;;1.40;;
38513;SDS011;24282;48.400;10.808;2022-07-18T09:05:30;1.60;;;0.93;;
38513;SDS011;24282;48.400;10.808;2022-07-18T09:10:41;2.65;;;1.02;;
38513;SDS011;24282;48.400;10.808;2022-07-18T09:16:11;3.55;;;1.10;;
38513;SDS011;24282;48.400;10.808;2022-07-18T09:21:14;4.38;;;1.55;;
38513;SDS011;24282;48.400;10.808;2022-07-18T09:23:43;2.90;;;1.15;;
38513;SDS011;24282;48.400;10.808;2022-07-18T09:26:10;1.88;;;1.10;;
38513;SDS011;24282;48.400;10.808;2022-07-18T09:28:46;1.73;;;0.95;;
38513;SDS011;24282;48.400;10.808;2022-07-18T09:31:19;1.48;;;0.90;;
38513;SDS011;24282;48.400;10.808;2022-07-18T09:33:59;1.48;;;0.88;;
38513;SDS011;24282;48.400;10.808;2022-07-18T09:36:27;1.48;;;0.93;;
38513;SDS011;24282;48.400;10.808;2022-07-18T09:38:54;1.83;;;0.90;;
38513;SDS011;24282;48.400;10.808;2022-07-18T09:41:24;1.95;;;1.00;;
38513;SDS011;24282;48.400;10.808;2022-07-18T09:43:52;1.27;;;0.90;;
38513;SDS011;24282;48.400;10.808;2022-07-18T09:46:18;1.45;;;0.88;;
38513;SDS011;24282;48.400;10.808;2022-07-18T09:48:44;2.05;;;1.20;;
38513;SDS011;24282;48.400;10.808;2022-07-18T09:51:10;1.90;;;1.13;;
38513;SDS011;24282;48.400;10.808;2022-07-18T09:56:07;2.47;;;0.95;;
38513;SDS011;24282;48.400;10.808;2022-07-18T09:58:41;2.17;;;1.00;;
38513;SDS011;24282;48.400;10.808;2022-07-18T10:01:16;1.75;;;0.93;;
38513;SDS011;24282;48.400;10.808;2022-07-18T10:03:43;1.52;;;1.00;;
38513;SDS011;24282;48.400;10.808;2022-07-18T10:06:10;3.22;;;1.33;;
38513;SDS011;24282;48.400;10.808;2022-07-18T10:08:36;1.50;;;0.90;;
38513;SDS011;24282;48.400;10.808;2022-07-18T10:11:03;2.92;;;1.10;;
38513;SDS011;24282;48.400;10.808;2022-07-18T10:13:31;1.20;;;0.90;;
38513;SDS011;24282;48.400;10.808;2022-07-18T10:15:58;2.00;;;1.02;;
38513;SDS011;24282;48.400;10.808;2022-07-18T10:18:27;1.67;;;0.95;;
38513;SDS011;24282;48.400;10.808;2022-07-18T10:31:59;1.90;;;1.13;;
38513;SDS011;24282;48.400;10.808;2022-07-18T10:34:28;1.50;;;0.90;;
38513;SDS011;24282;48.400;10.808;2022-07-18T10:39:40;1.67;;;1.05;;
38513;SDS011;24282;48.400;10.808;2022-07-18T10:44:36;1.77;;;1.13;;
38513;SDS011;24282;48.400;10.808;2022-07-18T11:00:34;1.17;;;0.80;;
38513;SDS011;24282;48.400;10.808;2022-07-18T11:03:05;1.65;;;0.93;;
38513;SDS011;24282;48.400;10.808;2022-07-18T11:05:33;3.23;;;1.10;;
38513;SDS011;24282;48.400;10.808;2022-07-18T11:15:54;2.80;;;0.90;;
38513;SDS011;24282;48.400;10.808;2022-07-18T11:21:17;1.85;;;1.08;;
38513;SDS011;24282;48.400;10.808;2022-07-18T11:23:47;2.90;;;0.83;;
38513;SDS011;24282;48.400;10.808;2022-07-18T11:26:15;1.90;;;0.90;;
38513;SDS011;24282;48.400;10.808;2022-07-18T11:28:42;1.65;;;0.80;;
38513;SDS011;24282;48.400;10.808;2022-07-18T11:31:10;1.10;;;0.93;;
38513;SDS011;24282;48.400;10.808;2022-07-18T11:33:38;2.17;;;1.10;;
38513;SDS011;24282;48.400;10.808;2022-07-18T11:36:10;1.65;;;0.90;;
38513;SDS011;24282;48.400;10.808;2022-07-18T11:38:38;1.10;;;1.00;;
38513;SDS011;24282;48.400;10.808;2022-07-18T11:41:12;1.80;;;0.95;;
38513;SDS011;24282;48.400;10.808;2022-07-18T11:43:38;2.00;;;1.13;;
38513;SDS011;24282;48.400;10.808;2022-07-18T11:46:05;3.58;;;1.17;;
38513;SDS011;24282;48.400;10.808;2022-07-18T11:48:33;4.68;;;1.17;;
38513;SDS011;24282;48.400;10.808;2022-07-18T11:51:00;2.90;;;2.05;;
38513;SDS011;24282;48.400;10.808;2022-07-18T11:53:26;1.95;;;1.20;;
38513;SDS011;24282;48.400;10.808;2022-07-18T11:55:53;2.38;;;0.90;;
38513;SDS011;24282;48.400;10.808;2022-07-18T11:58:20;1.13;;;0.80;;
38513;SDS011;24282;48.400;10.808;2022-07-18T12:00:47;2.08;;;0.80;;
38513;SDS011;24282;48.400;10.808;2022-07-18T12:03:18;1.40;;;0.75;;
38513;SDS011;24282;48.400;10.808;2022-07-18T12:05:49;3.05;;;1.10;;
38513;SDS011;24282;48.400;10.808;2022-07-18T12:11:02;1.60;;;1.00;;
38513;SDS011;24282;48.400;10.808;2022-07-18T12:34:56;1.45;;;0.82;;
38513;SDS011;24282;48.400;10.808;2022-07-18T12:37:26;1.95;;;0.90;;
38513;SDS011;24282;48.400;10.808;2022-07-18T12:39:55;1.23;;;0.80;;
38513;SDS011;24282;48.400;10.808;2022-07-18T12:42:29;1.00;;;0.77;;
38513;SDS011;24282;48.400;10.808;2022-07-18T12:45:05;1.25;;;0.65;;
38513;SDS011;24282;48.400;10.808;2022-07-18T12:47:33;1.58;;;0.80;;
38513;SDS011;24282;48.400;10.808;2022-07-18T12:49:58;1.50;;;0.90;;
38513;SDS011;24282;48.400;10.808;2022-07-18T12:52:24;4.68;;;1.05;;
38513;SDS011;24282;48.400;10.808;2022-07-18T12:54:50;3.45;;;0.80;;
38513;SDS011;24282;48.400;10.808;2022-07-18T12:57:17;1.35;;;1.00;;
38513;SDS011;24282;48.400;10.808;2022-07-18T12:59:43;1.63;;;0.77;;
38513;SDS011;24282;48.400;10.808;2022-07-18T13:02:10;2.17;;;1.10;;
38513;SDS011;24282;48.400;10.808;2022-07-18T13:04:36;1.38;;;0.85;;
38513;SDS011;24282;48.400;10.808;2022-07-18T13:07:02;2.05;;;0.90;;
38513;SDS011;24282;48.400;10.808;2022-07-18T13:09:28;1.35;;;0.65;;
38513;SDS011;24282;48.400;10.808;2022-07-18T13:11:54;1.60;;;0.90;;
38513;SDS011;24282;48.400;10.808;2022-07-18T13:14:19;1.10;;;0.90;;
38513;SDS011;24282;48.400;10.808;2022-07-18T13:16:52;1.65;;;0.90;;
38513;SDS011;24282;48.400;10.808;2022-07-18T13:19:19;1.35;;;0.80;;
38513;SDS011;24282;48.400;10.808;2022-07-18T13:21:45;0.82;;;0.60;;
38513;SDS011;24282;48.400;10.808;2022-07-18T13:24:12;1.63;;;0.77;;
38513;SDS011;24282;48.400;10.808;2022-07-18T13:26:39;1.27;;;0.80;;
38513;SDS011;24282;48.400;10.808;2022-07-18T13:29:06;1.45;;;0.90;;
38513;SDS011;24282;48.400;10.808;2022-07-18T13:31:32;0.98;;;0.68;;
38513;SDS011;24282;48.400;10.808;2022-07-18T13:33:58;2.28;;;0.90;;
38513;SDS011;24282;48.400;10.808;2022-07-18T13:36:24;1.15;;;0.88;;
38513;SDS011;24282;48.400;10.808;2022-07-18T13:38:50;1.70;;;0.80;;
38513;SDS011;24282;48.400;10.808;2022-07-18T13:41:16;1.27;;;0.90;;
38513;SDS011;24282;48.400;10.808;2022-07-18T13:43:42;1.60;;;0.80;;
38513;SDS011;24282;48.400;10.808;2022-07-18T13:46:09;1.73;;;0.90;;
38513;SDS011;24282;48.400;10.808;2022-07-18T13:48:36;1.33;;;0.90;;
38513;SDS011;24282;48.400;10.808;2022-07-18T13:51:02;1.58;;;0.70;;
38513;SDS011;24282;48.400;10.808;2022-07-18T13:53:29;1.45;;;0.95;;
38513;SDS011;24282;48.400;10.808;2022-07-18T13:55:55;1.23;;;0.73;;
38513;SDS011;24282;48.400;10.808;2022-07-18T13:58:21;3.65;;;1.00;;
38513;SDS011;24282;48.400;10.808;2022-07-18T14:00:47;1.38;;;0.75;;
38513;SDS011;24282;48.400;10.808;2022-07-18T14:03:13;1.10;;;0.98;;
38513;SDS011;24282;48.400;10.808;2022-07-18T14:05:39;3.28;;;1.00;;
38513;SDS011;24282;48.400;10.808;2022-07-18T14:08:05;3.00;;;1.00;;
38513;SDS011;24282;48.400;10.808;2022-07-18T14:10:33;4.05;;;1.17;;
38513;SDS011;24282;48.400;10.808;2022-07-18T14:12:59;2.55;;;1.00;;
38513;SDS011;24282;48.400;10.808;2022-07-18T14:15:25;2.25;;;1.10;;
38513;SDS011;24282;48.400;10.808;2022-07-18T14:17:51;1.10;;;0.70;;
38513;SDS011;24282;48.400;10.808;2022-07-18T14:20:17;1.55;;;1.02;;
38513;SDS011;24282;48.400;10.808;2022-07-18T14:22:44;2.88;;;0.80;;
38513;SDS011;24282;48.400;10.808;2022-07-18T14:25:12;1.38;;;0.73;;
38513;SDS011;24282;48.400;10.808;2022-07-18T14:27:38;1.75;;;0.80;;
38513;SDS011;24282;48.400;10.808;2022-07-18T14:30:05;2.13;;;0.93;;
38513;SDS011;24282;48.400;10.808;2022-07-18T14:32:32;2.17;;;0.65;;
38513;SDS011;24282;48.400;10.808;2022-07-18T14:34:58;2.33;;;0.82;;
38513;SDS011;24282;48.400;10.808;2022-07-18T14:37:24;1.00;;;0.60;;
38513;SDS011;24282;48.400;10.808;2022-07-18T14:39:50;1.83;;;1.00;;
38513;SDS011;24282;48.400;10.808;2022-07-18T14:42:16;2.10;;;0.77;;
38513;SDS011;24282;48.400;10.808;2022-07-18T14:44:42;1.80;;;0.95;;
38513;SDS011;24282;48.400;10.808;2022-07-18T14:47:08;1.25;;;0.50;;
38513;SDS011;24282;48.400;10.808;2022-07-18T14:49:34;2.13;;;1.00;;
38513;SDS011;24282;48.400;10.808;2022-07-18T14:52:00;1.20;;;0.80;;
38513;SDS011;24282;48.400;10.808;2022-07-18T14:54:26;2.33;;;1.00;;
38513;SDS011;24282;48.400;10.808;2022-07-18T14:56:53;2.25;;;1.05;;
38513;SDS011;24282;48.400;10.808;2022-07-18T14:59:20;3.38;;;0.90;;
38513;SDS011;24282;48.400;10.808;2022-07-18T15:01:46;1.10;;;0.80;;
38513;SDS011;24282;48.400;10.808;2022-07-18T15:04:12;1.50;;;0.80;;
38513;SDS011;24282;48.400;10.808;2022-07-18T15:06:38;1.77;;;0.82;;
38513;SDS011;24282;48.400;10.808;2022-07-18T15:09:05;1.90;;;0.95;;
38513;SDS011;24282;48.400;10.808;2022-07-18T15:11:34;1.73;;;0.80;;
38513;SDS011;24282;48.400;10.808;2022-07-18T15:14:00;2.40;;;0.90;;
38513;SDS011;24282;48.400;10.808;2022-07-18T15:16:26;0.90;;;0.65;;
38513;SDS011;24282;48.400;10.808;2022-07-18T15:18:52;1.02;;;0.80;;
38513;SDS011;24282;48.400;10.808;2022-07-18T15:21:18;1.33;;;0.80;;
38513;SDS011;24282;48.400;10.808;2022-07-18T15:23:44;2.75;;;0.88;;
38513;SDS011;24282;48.400;10.808;2022-07-18T15:26:10;0.68;;;0.50;;
38513;SDS011;24282;48.400;10.808;2022-07-18T15:28:35;1.50;;;0.93;;
38513;SDS011;24282;48.400;10.808;2022-07-18T15:31:01;1.35;;;0.80;;
38513;SDS011;24282;48.400;10.808;2022-07-18T15:33:27;2.20;;;0.70;;
38513;SDS011;24282;48.400;10.808;2022-07-18T15:35:53;1.52;;;0.90;;
38513;SDS011;24282;48.400;10.808;2022-07-18T15:38:19;2.15;;;0.80;;
38513;SDS011;24282;48.400;10.808;2022-07-18T15:40:45;1.10;;;0.55;;
38513;SDS011;24282;48.400;10.808;2022-07-18T15:43:10;2.85;;;0.70;;
38513;SDS011;24282;48.400;10.808;2022-07-18T15:45:36;2.28;;;1.10;;